createdAt,value
2022-09-18T00:03:55.202Z,11.00
2022-09-18T00:07:56.781Z,11.00
2022-09-18T00:11:59.995Z,11.10
2022-09-18T00:16:02.221Z,11.10
2022-09-18T00:20:04.571Z,11.00
2022-09-18T00:24:06.242Z,11.10
2022-09-18T00:28:08.147Z,11.10
2022-09-18T00:32:09.899Z,11.10
2022-09-18T00:36:17.991Z,11.20
2022-09-18T00:40:19.685Z,11.20
2022-09-18T00:44:38.386Z,11.00
2022-09-18T00:49:08.185Z,11.10
2022-09-18T00:53:11.012Z,11.10
2022-09-18T00:57:34.567Z,11.10
2022-09-18T01:01:36.358Z,11.20
2022-09-18T01:06:00.734Z,11.10
2022-09-18T01:10:27.747Z,11.10
2022-09-18T01:14:44.077Z,11.10
2022-09-18T01:18:56.828Z,11.10
2022-09-18T01:23:24.817Z,11.10
2022-09-18T01:27:40.910Z,11.20
2022-09-18T01:31:48.002Z,11.20
2022-09-18T01:35:54.946Z,11.10
2022-09-18T01:40:12.843Z,11.10
2022-09-18T01:44:17.113Z,11.10
2022-09-18T01:48:28.280Z,11.00
2022-09-18T01:52:36.044Z,11.00
2022-09-18T01:56:44.788Z,11.00
2022-09-18T02:00:59.872Z,11.00
2022-09-18T02:05:07.410Z,11.00
2022-09-18T02:09:11.196Z,11.00
2022-09-18T02:13:17.709Z,11.00
2022-09-18T02:17:33.938Z,11.00
2022-09-18T02:21:36.962Z,11.00
2022-09-18T02:25:48.738Z,11.00
2022-09-18T02:29:51.206Z,11.00
2022-09-18T02:33:53.368Z,11.00
2022-09-18T02:38:08.671Z,11.00
2022-09-18T02:42:16.936Z,11.00
2022-09-18T02:46:40.248Z,11.00
2022-09-18T02:51:08.191Z,11.00
2022-09-18T02:55:21.202Z,11.00
2022-09-18T02:59:36.476Z,11.00
2022-09-18T03:03:39.360Z,11.00
2022-09-18T03:07:41.003Z,11.10
2022-09-18T03:11:42.679Z,11.00
2022-09-18T03:15:44.366Z,11.10
2022-09-18T03:19:46.309Z,11.00
2022-09-18T03:23:47.977Z,11.00
2022-09-18T03:27:54.231Z,11.10
2022-09-18T03:31:55.970Z,11.10
2022-09-18T03:35:57.765Z,11.00
2022-09-18T03:39:59.957Z,11.10
2022-09-18T03:44:01.857Z,11.00
2022-09-18T03:48:04.765Z,11.00
2022-09-18T03:52:06.407Z,11.00
2022-09-18T03:56:08.047Z,11.00
2022-09-18T04:00:10.366Z,11.00
2022-09-18T04:04:13.119Z,11.10
2022-09-18T04:08:14.748Z,11.00
2022-09-18T04:12:16.479Z,11.00
2022-09-18T04:16:18.422Z,10.90
2022-09-18T04:20:20.065Z,10.90
2022-09-18T04:24:21.700Z,10.90
2022-09-18T04:28:24.590Z,10.90
2022-09-18T04:32:26.351Z,10.90
2022-09-18T04:36:27.991Z,10.90
2022-09-18T04:40:29.952Z,10.90
2022-09-18T04:44:31.661Z,10.90
2022-09-18T04:48:33.251Z,10.90
2022-09-18T04:52:35.802Z,10.90
2022-09-18T04:56:37.465Z,10.90
2022-09-18T05:00:40.006Z,10.90
2022-09-18T05:04:41.685Z,10.90
2022-09-18T05:08:43.282Z,10.90
2022-09-18T05:12:45.051Z,10.90
2022-09-18T05:16:46.756Z,11.00
2022-09-18T05:20:48.423Z,11.00
2022-09-18T05:24:50.327Z,11.00
2022-09-18T05:28:51.915Z,11.00
2022-09-18T05:33:01.498Z,11.10
2022-09-18T05:37:03.103Z,11.10
2022-09-18T05:41:04.883Z,11.10
2022-09-18T05:45:06.747Z,11.20
2022-09-18T05:49:08.389Z,11.10
2022-09-18T05:53:15.078Z,11.10
2022-09-18T05:57:16.665Z,11.10
2022-09-18T06:01:18.284Z,11.10
2022-09-18T06:05:19.966Z,11.10
2022-09-18T06:09:21.983Z,11.20
2022-09-18T06:13:23.624Z,11.10
2022-09-18T06:17:25.302Z,11.10
2022-09-18T06:21:27.268Z,11.10
2022-09-18T06:25:30.020Z,11.20
2022-09-18T06:29:31.715Z,11.10
2022-09-18T06:33:35.675Z,11.20
2022-09-18T06:37:37.330Z,11.20
2022-09-18T06:41:39.009Z,11.30
2022-09-18T06:45:40.675Z,11.30
2022-09-18T06:49:42.677Z,11.20
2022-09-18T06:53:44.558Z,11.30
2022-09-18T06:57:56.282Z,11.30
2022-09-18T07:01:57.919Z,11.20
2022-09-18T07:05:59.630Z,11.20
2022-09-18T07:10:03.604Z,11.20
2022-09-18T07:14:08.210Z,11.20
2022-09-18T07:18:09.984Z,11.30
2022-09-18T07:22:11.660Z,11.30
2022-09-18T07:26:14.074Z,11.40
2022-09-18T07:30:16.347Z,11.40
2022-09-18T07:34:18.037Z,11.40
2022-09-18T07:38:19.683Z,11.40
2022-09-18T07:42:21.321Z,11.40
2022-09-18T07:46:23.149Z,11.40
2022-09-18T07:50:25.109Z,11.50
2022-09-18T07:54:26.707Z,11.60
2022-09-18T07:58:28.391Z,11.70
2022-09-18T08:02:30.143Z,11.80
2022-09-18T08:06:32.417Z,11.90
2022-09-18T08:10:35.685Z,11.90
2022-09-18T08:14:37.343Z,12.00
2022-09-18T08:18:39.443Z,12.20
2022-09-18T08:22:41.901Z,12.30
2022-09-18T08:26:43.546Z,12.30
2022-09-18T08:30:45.677Z,12.30
2022-09-18T08:34:47.364Z,12.20
2022-09-18T08:38:49.006Z,12.20
2022-09-18T08:43:04.422Z,12.20
2022-09-18T08:47:22.154Z,12.20
2022-09-18T08:51:30.607Z,12.20
2022-09-18T08:55:41.301Z,12.30
2022-09-18T08:59:49.172Z,12.30
2022-09-18T09:04:09.467Z,12.30
2022-09-18T09:08:34.128Z,12.30
2022-09-18T09:13:15.191Z,12.50
2022-09-18T09:17:37.446Z,12.50
2022-09-18T09:21:54.290Z,12.50
2022-09-18T09:26:05.846Z,12.60
2022-09-18T09:30:17.216Z,12.80
2022-09-18T09:34:26.715Z,12.90
2022-09-18T09:38:41.310Z,13.10
2022-09-18T09:42:56.423Z,13.10
2022-09-18T09:47:13.090Z,13.10
2022-09-18T09:51:30.175Z,13.00
2022-09-18T09:55:37.096Z,12.90
2022-09-18T10:00:07.185Z,13.10
2022-09-18T10:04:17.425Z,13.10
2022-09-18T10:08:31.961Z,13.20
2022-09-18T10:12:54.703Z,13.30
2022-09-18T10:16:57.793Z,13.30
2022-09-18T10:21:08.915Z,13.40
2022-09-18T10:25:23.279Z,13.30
2022-09-18T10:29:25.175Z,13.40
2022-09-18T10:33:36.678Z,13.50
2022-09-18T10:37:40.383Z,13.60
2022-09-18T10:41:43.040Z,13.60
2022-09-18T10:45:52.170Z,13.40
2022-09-18T10:49:53.796Z,13.10
2022-09-18T10:54:04.469Z,13.10
2022-09-18T10:58:16.571Z,12.90
2022-09-18T11:02:20.977Z,12.80
2022-09-18T11:06:34.213Z,12.50
2022-09-18T11:10:37.579Z,12.40
2022-09-18T11:14:43.436Z,12.30
2022-09-18T11:18:47.362Z,12.30
2022-09-18T11:22:49.135Z,12.20
2022-09-18T11:26:57.173Z,12.10
2022-09-18T11:31:02.158Z,12.10
2022-09-18T11:35:12.279Z,11.80
2022-09-18T11:39:23.897Z,11.70
2022-09-18T11:43:33.380Z,11.40
2022-09-18T11:47:45.995Z,11.30
2022-09-18T11:51:56.649Z,11.40
2022-09-18T11:56:06.196Z,11.40
2022-09-18T12:00:17.237Z,11.40
2022-09-18T12:04:40.357Z,11.40
2022-09-18T12:08:59.693Z,11.40
2022-09-18T12:13:20.047Z,11.40
2022-09-18T12:17:43.292Z,11.40
2022-09-18T12:22:15.593Z,11.50
2022-09-18T12:26:38.518Z,11.60
2022-09-18T12:30:49.205Z,11.60
2022-09-18T12:35:02.884Z,11.80
2022-09-18T12:39:31.207Z,11.80
2022-09-18T12:43:54.372Z,11.70
2022-09-18T12:48:21.218Z,11.80
2022-09-18T12:53:08.284Z,11.80
2022-09-18T12:57:49.977Z,11.70
2022-09-18T13:01:57.791Z,11.60
2022-09-18T13:06:06.517Z,11.60
2022-09-18T13:10:23.798Z,11.60
2022-09-18T13:14:32.186Z,11.60
2022-09-18T13:18:39.012Z,11.60
2022-09-18T13:22:44.502Z,11.70
2022-09-18T13:26:48.034Z,11.70
2022-09-18T13:31:15.634Z,11.70
2022-09-18T13:35:49.517Z,11.80
2022-09-18T13:40:10.472Z,11.80
2022-09-18T13:44:27.460Z,11.80
2022-09-18T13:48:55.755Z,11.90
2022-09-18T13:52:59.504Z,11.90
2022-09-18T13:57:17.122Z,12.00
2022-09-18T14:01:40.580Z,12.00
2022-09-18T14:05:45.500Z,12.00
2022-09-18T14:10:01.916Z,12.10
2022-09-18T14:14:11.901Z,12.10
2022-09-18T14:18:16.323Z,12.10
2022-09-18T14:22:29.284Z,12.10
2022-09-18T14:26:31.227Z,12.10
2022-09-18T14:30:33.066Z,12.10
2022-09-18T14:34:43.434Z,12.00
2022-09-18T14:38:45.050Z,12.00
2022-09-18T14:42:47.423Z,11.90
2022-09-18T14:46:57.782Z,11.90
2022-09-18T14:51:05.382Z,11.80
2022-09-18T14:55:17.652Z,11.90
2022-09-18T14:59:20.809Z,11.80
2022-09-18T15:03:38.325Z,11.70
2022-09-18T15:07:51.530Z,11.70
2022-09-18T15:12:02.199Z,11.70
2022-09-18T15:16:04.724Z,11.60
2022-09-18T15:20:15.265Z,11.50
2022-09-18T15:24:19.122Z,10.90
2022-09-18T15:28:23.989Z,10.60
2022-09-18T15:32:30.706Z,10.60
2022-09-18T15:36:36.377Z,10.60
2022-09-18T15:40:39.032Z,10.50
2022-09-18T15:44:50.184Z,10.30
2022-09-18T15:48:52.453Z,10.20
2022-09-18T15:53:02.829Z,10.10
2022-09-18T15:57:05.262Z,10.00
2022-09-18T16:01:15.504Z,10.00
2022-09-18T16:05:18.010Z,9.90
2022-09-18T16:09:43.019Z,9.80
2022-09-18T16:13:44.864Z,9.80
2022-09-18T16:17:46.562Z,9.80
2022-09-18T16:21:48.226Z,9.70
2022-09-18T16:26:07.452Z,9.70
2022-09-18T16:30:11.885Z,9.70
2022-09-18T16:34:29.296Z,9.60
2022-09-18T16:38:32.337Z,9.70
2022-09-18T16:42:33.935Z,9.60
2022-09-18T16:46:49.299Z,9.70
2022-09-18T16:50:51.010Z,9.70
2022-09-18T16:54:52.651Z,9.70
2022-09-18T16:58:57.107Z,9.70
2022-09-18T17:03:00.327Z,9.60
2022-09-18T17:07:02.475Z,9.60
2022-09-18T17:11:05.013Z,9.50
2022-09-18T17:15:08.502Z,9.40
2022-09-18T17:19:10.788Z,9.40
2022-09-18T17:23:12.631Z,9.40
2022-09-18T17:27:15.085Z,9.30
2022-09-18T17:31:18.511Z,9.30
2022-09-18T17:35:20.153Z,9.40
2022-09-18T17:39:21.906Z,9.40
2022-09-18T17:43:24.969Z,9.30
2022-09-18T17:47:26.591Z,9.20
2022-09-18T17:51:29.337Z,9.20
2022-09-18T17:55:32.903Z,9.20
2022-09-18T17:59:34.834Z,9.30
2022-09-18T18:03:37.226Z,9.30
2022-09-18T18:07:38.845Z,9.30
2022-09-18T18:11:42.689Z,9.30
2022-09-18T18:15:44.611Z,9.30
2022-09-18T18:19:46.293Z,9.30
2022-09-18T18:23:48.965Z,9.30
2022-09-18T18:27:51.665Z,9.30
2022-09-18T18:31:53.529Z,9.30
2022-09-18T18:35:55.462Z,9.30
2022-09-18T18:39:57.120Z,9.30
2022-09-18T18:44:02.042Z,9.30
2022-09-18T18:48:06.370Z,9.20
2022-09-18T18:52:10.613Z,9.20
2022-09-18T18:56:15.094Z,9.20
2022-09-18T19:00:16.979Z,9.10
2022-09-18T19:04:21.297Z,9.00
2022-09-18T19:08:23.460Z,8.90
2022-09-18T19:12:28.194Z,8.80
2022-09-18T19:16:32.050Z,8.80
2022-09-18T19:20:34.442Z,8.70
2022-09-18T19:24:36.054Z,8.60
2022-09-18T19:28:37.661Z,8.50
2022-09-18T19:32:39.263Z,8.50
2022-09-18T19:36:41.657Z,8.50
2022-09-18T19:40:43.284Z,8.40
2022-09-18T19:44:52.866Z,8.40
2022-09-18T19:48:54.751Z,8.30
2022-09-18T19:52:56.523Z,8.20
2022-09-18T19:56:59.056Z,8.30
2022-09-18T20:01:01.219Z,8.30
2022-09-18T20:05:03.119Z,8.20
2022-09-18T20:09:05.366Z,8.20
2022-09-18T20:13:07.742Z,8.30
2022-09-18T20:17:09.825Z,8.20
2022-09-18T20:21:14.011Z,8.20
2022-09-18T20:25:15.656Z,8.20
2022-09-18T20:29:17.310Z,8.20
2022-09-18T20:33:19.051Z,8.20
2022-09-18T20:37:20.726Z,8.20
2022-09-18T20:41:22.370Z,8.30
2022-09-18T20:45:26.823Z,8.20
2022-09-18T20:49:31.915Z,8.30
2022-09-18T20:53:34.336Z,8.30
2022-09-18T20:57:36.756Z,8.30
2022-09-18T21:01:42.536Z,8.30
2022-09-18T21:05:44.334Z,8.30
2022-09-18T21:09:46.275Z,8.40
2022-09-18T21:13:48.345Z,8.30
2022-09-18T21:17:51.209Z,8.30
2022-09-18T21:21:52.846Z,8.40
2022-09-18T21:25:54.583Z,8.30
2022-09-18T21:29:56.380Z,8.30
2022-09-18T21:33:59.089Z,8.30
2022-09-18T21:38:00.700Z,8.40
2022-09-18T21:42:23.019Z,8.40
2022-09-18T21:46:25.207Z,8.50
2022-09-18T21:50:26.858Z,8.50
2022-09-18T21:54:28.946Z,8.50
2022-09-18T21:58:30.975Z,8.40
2022-09-18T22:02:32.625Z,8.40
2022-09-18T22:06:39.988Z,8.40
2022-09-18T22:10:41.739Z,8.50
2022-09-18T22:14:43.422Z,8.50
2022-09-18T22:18:48.263Z,8.50
2022-09-18T22:22:49.865Z,8.50
2022-09-18T22:26:55.087Z,8.50
2022-09-18T22:30:57.182Z,8.50
2022-09-18T22:34:59.294Z,8.50
2022-09-18T22:39:00.908Z,8.50
2022-09-18T22:43:02.518Z,8.50
2022-09-18T22:47:04.877Z,8.50
2022-09-18T22:51:08.165Z,8.50
2022-09-18T22:55:09.765Z,8.50
2022-09-18T22:59:31.381Z,8.50
2022-09-18T23:03:33.723Z,8.50
2022-09-18T23:07:38.664Z,8.50
2022-09-18T23:11:41.590Z,8.50
2022-09-18T23:15:43.235Z,8.50
2022-09-18T23:19:44.890Z,8.60
2022-09-18T23:23:48.194Z,8.70
2022-09-18T23:27:52.563Z,8.70
2022-09-18T23:31:57.241Z,8.70
2022-09-18T23:36:14.344Z,8.80
2022-09-18T23:40:16.752Z,8.80
2022-09-18T23:44:20.278Z,8.80
2022-09-18T23:48:21.882Z,8.80
2022-09-18T23:52:23.540Z,8.90
2022-09-18T23:56:25.583Z,8.90
